createdAt,value
2018-08-04T00:00:36.040Z,24.59
2018-08-04T00:03:42.694Z,24.52
2018-08-04T00:06:49.166Z,24.51
2018-08-04T00:09:55.635Z,24.54
2018-08-04T00:13:02.751Z,24.42
2018-08-04T00:16:09.324Z,24.26
2018-08-04T00:19:16.050Z,24.16
2018-08-04T00:22:22.887Z,24.07
2018-08-04T00:25:29.436Z,24.03
2018-08-04T00:28:36.211Z,24.01
2018-08-04T00:31:43.127Z,23.98
2018-08-04T00:34:49.669Z,23.96
2018-08-04T00:37:56.324Z,23.92
2018-08-04T00:41:03.165Z,23.87
2018-08-04T00:44:10.046Z,23.79
2018-08-04T00:47:16.857Z,23.75
2018-08-04T00:50:24.135Z,23.72
2018-08-04T00:53:30.995Z,23.69
2018-08-04T00:56:37.543Z,23.71
2018-08-04T00:59:44.656Z,23.71
2018-08-04T01:02:51.303Z,23.71
2018-08-04T01:05:57.814Z,23.64
2018-08-04T01:09:05.921Z,23.55
2018-08-04T01:12:13.119Z,23.46
2018-08-04T01:15:19.935Z,23.47
2018-08-04T01:18:26.731Z,23.58
2018-08-04T01:21:33.846Z,23.48
2018-08-04T01:24:41.085Z,23.33
2018-08-04T01:27:47.887Z,23.33
2018-08-04T01:30:54.685Z,23.39
2018-08-04T01:34:01.293Z,23.48
2018-08-04T01:37:07.703Z,23.48
2018-08-04T01:40:14.476Z,23.47
2018-08-04T01:43:21.319Z,23.52
2018-08-04T01:46:28.115Z,23.58
2018-08-04T01:49:34.895Z,23.58
2018-08-04T01:52:41.753Z,23.45
2018-08-04T01:55:48.566Z,23.29
2018-08-04T01:58:55.622Z,23.28
2018-08-04T02:02:02.291Z,23.22
2018-08-04T02:05:08.839Z,23.03
2018-08-04T02:08:15.921Z,22.86
2018-08-04T02:11:22.750Z,22.82
2018-08-04T02:14:29.550Z,22.78
2018-08-04T02:17:36.045Z,22.82
2018-08-04T02:20:42.905Z,22.95
2018-08-04T02:23:49.765Z,23.07
2018-08-04T02:26:57.203Z,23.16
2018-08-04T02:30:04.361Z,23.21
2018-08-04T02:33:11.070Z,23.23
2018-08-04T02:36:18.015Z,23.21
2018-08-04T02:39:24.810Z,23.14
2018-08-04T02:42:31.703Z,23.11
2018-08-04T02:45:38.525Z,23.14
2018-08-04T02:48:45.145Z,23.14
2018-08-04T02:51:52.012Z,23.11
2018-08-04T02:54:58.946Z,23.07
2018-08-04T02:58:05.983Z,23.03
2018-08-04T03:01:12.793Z,22.98
2018-08-04T03:04:19.661Z,22.89
2018-08-04T03:07:26.920Z,22.85
2018-08-04T03:10:33.486Z,22.87
2018-08-04T03:13:40.363Z,22.83
2018-08-04T03:16:47.100Z,22.78
2018-08-04T03:19:53.896Z,22.77
2018-08-04T03:23:00.410Z,22.68
2018-08-04T03:26:07.396Z,22.62
2018-08-04T03:29:14.670Z,22.51
2018-08-04T03:32:21.355Z,22.29
2018-08-04T03:35:28.076Z,22.10
2018-08-04T03:38:34.859Z,22.02
2018-08-04T03:41:42.595Z,22.05
2018-08-04T03:44:49.051Z,22.04
2018-08-04T03:47:56.009Z,22.02
2018-08-04T03:51:02.467Z,22.09
2018-08-04T03:54:09.339Z,22.18
2018-08-04T03:57:16.471Z,22.31
2018-08-04T04:00:23.303Z,22.41
2018-08-04T04:03:30.184Z,22.44
2018-08-04T04:06:36.768Z,22.43
2018-08-04T04:09:43.183Z,22.42
2018-08-04T04:12:50.089Z,22.51
2018-08-04T04:15:56.568Z,22.63
2018-08-04T04:19:03.337Z,22.72
2018-08-04T04:22:09.920Z,22.76
2018-08-04T04:25:16.373Z,22.71
2018-08-04T04:28:23.201Z,22.53
2018-08-04T04:31:29.750Z,22.46
2018-08-04T04:34:36.270Z,22.54
2018-08-04T04:37:43.264Z,22.62
2018-08-04T04:40:50.068Z,22.69
2018-08-04T04:43:56.914Z,22.76
2018-08-04T04:47:03.390Z,22.72
2018-08-04T04:50:10.182Z,22.61
2018-08-04T04:53:17.011Z,22.55
2018-08-04T04:56:23.541Z,22.58
2018-08-04T04:59:30.247Z,22.59
2018-08-04T05:02:36.952Z,22.63
2018-08-04T05:05:43.658Z,22.66
2018-08-04T05:08:50.541Z,22.67
2018-08-04T05:11:57.405Z,22.69
2018-08-04T05:15:04.890Z,22.74
2018-08-04T05:18:11.028Z,22.81
2018-08-04T05:21:17.821Z,22.83
2018-08-04T05:24:24.379Z,22.90
2018-08-04T05:27:31.204Z,23.01
2018-08-04T05:30:38.002Z,23.12
2018-08-04T05:33:44.824Z,23.17
2018-08-04T05:36:51.368Z,23.21
2018-08-04T05:39:58.085Z,23.26
2018-08-04T05:43:04.830Z,23.24
2018-08-04T05:46:11.540Z,23.28
2018-08-04T05:49:18.108Z,23.37
2018-08-04T05:52:24.914Z,23.46
2018-08-04T05:55:32.720Z,23.52
2018-08-04T05:58:39.536Z,23.62
2018-08-04T06:01:46.403Z,23.69
2018-08-04T06:04:53.474Z,23.72
2018-08-04T06:08:00.543Z,23.74
2018-08-04T06:11:07.087Z,23.71
2018-08-04T06:14:14.903Z,23.76
2018-08-04T06:17:21.570Z,23.90
2018-08-04T06:20:28.362Z,24.09
2018-08-04T06:23:35.032Z,24.27
2018-08-04T06:26:41.499Z,24.53
2018-08-04T06:29:48.331Z,24.89
2018-08-04T06:32:55.191Z,25.31
2018-08-04T06:36:01.734Z,25.80
2018-08-04T06:39:09.254Z,26.09
2018-08-04T06:42:16.131Z,26.06
2018-08-04T06:45:22.921Z,25.91
2018-08-04T06:48:29.361Z,25.68
2018-08-04T06:51:36.586Z,25.47
2018-08-04T06:54:43.446Z,25.32
2018-08-04T06:57:50.199Z,25.19
2018-08-04T07:00:56.922Z,25.00
2018-08-04T07:04:03.606Z,24.81
2018-08-04T07:07:10.175Z,24.71
2018-08-04T07:10:17.540Z,24.77
2018-08-04T07:13:24.456Z,24.91
2018-08-04T07:16:31.635Z,25.01
2018-08-04T07:19:38.178Z,25.15
2018-08-04T07:22:45.335Z,25.42
2018-08-04T07:25:51.742Z,25.60
2018-08-04T07:28:58.848Z,25.67
2018-08-04T07:32:05.679Z,25.74
2018-08-04T07:35:12.492Z,25.82
2018-08-04T07:38:19.276Z,25.87
2018-08-04T07:41:26.084Z,25.87
2018-08-04T07:44:32.754Z,25.90
2018-08-04T07:47:39.498Z,25.95
2018-08-04T07:50:46.279Z,25.96
2018-08-04T07:53:53.152Z,26.00
2018-08-04T07:56:59.949Z,26.05
2018-08-04T08:00:07.901Z,26.12
2018-08-04T08:03:15.269Z,26.24
2018-08-04T08:06:23.809Z,26.37
2018-08-04T08:09:31.350Z,26.50
2018-08-04T08:12:38.281Z,26.59
2018-08-04T08:15:46.644Z,26.64
2018-08-04T08:18:53.454Z,26.70
2018-08-04T08:22:00.276Z,26.78
2018-08-04T08:25:09.313Z,26.89
2018-08-04T08:28:17.686Z,27.05
2018-08-04T08:31:24.568Z,27.26
2018-08-04T08:34:31.336Z,27.41
2018-08-04T08:37:38.139Z,27.53
2018-08-04T08:40:44.713Z,27.76
2018-08-04T08:43:51.287Z,28.03
2018-08-04T08:46:58.510Z,28.36
2018-08-04T08:50:07.347Z,28.63
2018-08-04T08:53:14.296Z,28.72
2018-08-04T08:56:20.763Z,28.72
2018-08-04T08:59:27.898Z,28.70
2018-08-04T09:02:34.764Z,28.67
2018-08-04T09:05:41.602Z,28.64
2018-08-04T09:08:48.426Z,28.61
2018-08-04T09:11:55.493Z,28.62
2018-08-04T09:15:02.049Z,28.58
2018-08-04T09:18:09.126Z,28.55
2018-08-04T09:21:15.950Z,28.58
2018-08-04T09:24:22.759Z,28.69
2018-08-04T09:27:29.564Z,28.76
2018-08-04T09:30:36.863Z,28.75
2018-08-04T09:33:43.764Z,28.80
2018-08-04T09:36:50.315Z,28.84
2018-08-04T09:39:57.403Z,28.87
2018-08-04T09:43:04.271Z,28.91
2018-08-04T09:46:11.084Z,28.97
2018-08-04T09:49:17.619Z,29.05
2018-08-04T09:52:24.853Z,29.17
2018-08-04T09:55:31.612Z,29.27
2018-08-04T09:58:38.976Z,29.30
2018-08-04T10:01:45.817Z,29.34
2018-08-04T10:04:52.914Z,29.45
2018-08-04T10:08:01.682Z,29.56
2018-08-04T10:11:08.517Z,29.67
2018-08-04T10:14:17.314Z,29.74
2018-08-04T10:17:23.253Z,29.80
2018-08-04T10:20:30.036Z,29.93
2018-08-04T10:23:36.854Z,30.07
2018-08-04T10:26:43.653Z,30.30
2018-08-04T10:29:50.460Z,30.60
2018-08-04T10:32:57.698Z,30.81
2018-08-04T10:36:04.267Z,31.18
2018-08-04T10:39:11.454Z,31.76
2018-08-04T10:42:17.924Z,32.07
2018-08-04T10:45:28.970Z,32.17
2018-08-04T10:48:35.543Z,32.19
2018-08-04T10:51:42.373Z,32.02
2018-08-04T10:54:49.222Z,31.73
2018-08-04T10:57:56.024Z,31.55
2018-08-04T11:01:02.607Z,31.45
2018-08-04T11:04:09.429Z,31.45
2018-08-04T11:07:16.221Z,31.40
2018-08-04T11:10:23.042Z,31.35
2018-08-04T11:13:29.709Z,31.37
2018-08-04T11:16:37.093Z,31.46
2018-08-04T11:19:43.671Z,31.63
2018-08-04T11:22:51.063Z,31.59
2018-08-04T11:25:57.907Z,31.38
2018-08-04T11:29:04.762Z,31.34
2018-08-04T11:32:11.951Z,31.44
2018-08-04T11:35:18.760Z,31.50
2018-08-04T11:38:25.591Z,31.58
2018-08-04T11:41:32.908Z,31.71
2018-08-04T11:44:39.704Z,31.89
2018-08-04T11:47:46.517Z,32.06
2018-08-04T11:50:53.695Z,32.24
2018-08-04T11:54:00.537Z,32.43
2018-08-04T11:57:07.208Z,32.49
2018-08-04T12:00:14.359Z,32.41
2018-08-04T12:03:21.462Z,32.31
2018-08-04T12:06:27.849Z,32.18
2018-08-04T12:09:34.458Z,32.07
2018-08-04T12:12:41.122Z,31.99
2018-08-04T12:15:47.536Z,31.98
2018-08-04T12:18:54.355Z,32.09
2018-08-04T12:22:01.258Z,32.23
2018-08-04T12:25:08.345Z,32.23
2018-08-04T12:28:15.207Z,32.42
2018-08-04T12:31:21.546Z,32.72
2018-08-04T12:34:28.718Z,32.81
2018-08-04T12:37:35.578Z,33.03
2018-08-04T12:40:42.658Z,33.47
2018-08-04T12:43:49.523Z,34.13
2018-08-04T12:46:55.735Z,34.70
2018-08-04T12:50:02.811Z,34.78
2018-08-04T12:53:09.644Z,35.02
2018-08-04T12:56:15.855Z,36.04
2018-08-04T12:59:22.241Z,37.35
2018-08-04T13:02:29.005Z,38.39
2018-08-04T13:05:36.070Z,38.10
2018-08-04T13:08:43.251Z,37.35
2018-08-04T13:11:50.529Z,37.19
2018-08-04T13:14:57.434Z,37.39
2018-08-04T13:18:04.150Z,37.66
2018-08-04T13:21:11.240Z,37.51
2018-08-04T13:24:18.053Z,36.93
2018-08-04T13:27:25.201Z,36.29
2018-08-04T13:30:32.387Z,35.74
2018-08-04T13:33:39.509Z,35.23
2018-08-04T13:36:46.578Z,34.77
2018-08-04T13:39:54.167Z,34.53
2018-08-04T13:43:00.208Z,34.49
2018-08-04T13:46:06.912Z,34.37
2018-08-04T13:49:13.854Z,34.16
2018-08-04T13:52:20.883Z,34.04
2018-08-04T13:55:28.101Z,33.92
2018-08-04T13:58:35.033Z,33.81
2018-08-04T14:01:42.272Z,33.76
2018-08-04T14:04:49.122Z,33.72
2018-08-04T14:07:56.343Z,33.70
2018-08-04T14:11:03.206Z,33.59
2018-08-04T14:14:10.537Z,33.35
2018-08-04T14:17:17.747Z,33.11
2018-08-04T14:20:24.563Z,32.85
2018-08-04T14:23:31.820Z,32.77
2018-08-04T14:26:38.575Z,32.89
2018-08-04T14:29:45.432Z,33.00
2018-08-04T14:32:52.406Z,33.04
2018-08-04T14:35:58.929Z,33.06
2018-08-04T14:39:09.950Z,33.12
2018-08-04T14:42:16.895Z,33.06
2018-08-04T14:45:23.710Z,32.94
2018-08-04T14:48:30.783Z,32.79
2018-08-04T14:51:37.713Z,32.61
2018-08-04T14:54:44.558Z,32.56
2018-08-04T14:57:51.744Z,32.50
2018-08-04T15:00:58.647Z,32.30
2018-08-04T15:04:06.058Z,32.09
2018-08-04T15:07:12.855Z,31.98
2018-08-04T15:10:20.046Z,31.88
2018-08-04T15:13:26.910Z,31.84
2018-08-04T15:16:34.027Z,31.83
2018-08-04T15:19:40.853Z,31.81
2018-08-04T15:22:47.741Z,31.79
2018-08-04T15:25:54.893Z,31.77
2018-08-04T15:29:01.933Z,31.74
2018-08-04T15:32:08.875Z,31.69
2018-08-04T15:35:15.706Z,31.58
2018-08-04T15:38:22.820Z,31.46
2018-08-04T15:41:29.633Z,31.45
2018-08-04T15:44:36.846Z,31.50
2018-08-04T15:47:43.427Z,31.45
2018-08-04T15:50:50.207Z,31.28
2018-08-04T15:53:58.108Z,31.18
2018-08-04T15:57:04.178Z,31.08
2018-08-04T16:00:11.327Z,31.03
2018-08-04T16:03:19.158Z,31.04
2018-08-04T16:06:25.158Z,31.06
2018-08-04T16:09:32.116Z,31.00
2018-08-04T16:12:38.865Z,30.98
2018-08-04T16:15:45.647Z,31.02
2018-08-04T16:18:52.439Z,30.98
2018-08-04T16:21:59.108Z,30.91
2018-08-04T16:25:05.846Z,30.88
2018-08-04T16:28:12.668Z,30.78
2018-08-04T16:31:19.051Z,30.69
2018-08-04T16:34:25.888Z,30.55
2018-08-04T16:37:32.787Z,30.39
2018-08-04T16:40:39.548Z,30.32
2018-08-04T16:43:46.809Z,30.30
2018-08-04T16:46:53.662Z,30.18
2018-08-04T16:50:00.236Z,30.05
2018-08-04T16:53:07.472Z,29.99
2018-08-04T16:56:14.568Z,29.89
2018-08-04T16:59:21.377Z,29.84
2018-08-04T17:02:28.307Z,29.74
2018-08-04T17:05:35.117Z,29.54
2018-08-04T17:08:42.283Z,29.42
2018-08-04T17:11:49.141Z,29.37
2018-08-04T17:14:55.948Z,29.28
2018-08-04T17:18:02.859Z,29.16
2018-08-04T17:21:09.941Z,29.13
2018-08-04T17:24:16.767Z,29.12
2018-08-04T17:27:23.491Z,29.05
2018-08-04T17:30:30.628Z,28.92
2018-08-04T17:33:37.619Z,28.83
2018-08-04T17:36:44.448Z,28.75
2018-08-04T17:39:51.267Z,28.70
2018-08-04T17:42:57.968Z,28.58
2018-08-04T17:46:05.075Z,28.52
2018-08-04T17:49:11.870Z,28.45
2018-08-04T17:52:18.701Z,28.24
2018-08-04T17:55:25.523Z,28.11
2018-08-04T17:58:32.334Z,28.08
2018-08-04T18:01:39.250Z,28.01
2018-08-04T18:04:46.019Z,27.95
2018-08-04T18:07:52.599Z,27.91
2018-08-04T18:10:59.479Z,27.86
2018-08-04T18:14:06.485Z,27.80
2018-08-04T18:17:13.354Z,27.74
2018-08-04T18:20:19.906Z,27.69
2018-08-04T18:23:26.402Z,27.62
2018-08-04T18:26:33.244Z,27.49
2018-08-04T18:29:40.104Z,27.32
2018-08-04T18:32:47.539Z,27.15
2018-08-04T18:35:53.818Z,27.13
2018-08-04T18:39:00.609Z,27.16
2018-08-04T18:42:07.490Z,27.05
2018-08-04T18:45:14.277Z,26.95
2018-08-04T18:48:21.070Z,26.88
2018-08-04T18:51:30.876Z,26.87
2018-08-04T18:54:37.664Z,26.69
2018-08-04T18:57:46.746Z,26.56
2018-08-04T19:02:51.711Z,25.96
2018-08-04T19:05:59.147Z,26.21
2018-08-04T19:09:08.474Z,26.29
2018-08-04T19:12:17.769Z,26.30
2018-08-04T19:15:26.297Z,26.23
2018-08-04T19:18:33.987Z,26.18
2018-08-04T19:21:42.531Z,26.11
2018-08-04T19:24:50.641Z,26.06
2018-08-04T19:27:59.833Z,26.07
2018-08-04T19:31:08.787Z,25.95
2018-08-04T19:34:17.112Z,25.80
2018-08-04T19:37:25.678Z,25.72
2018-08-04T19:40:33.218Z,25.65
2018-08-04T19:43:40.766Z,25.64
2018-08-04T19:46:49.096Z,25.67
2018-08-04T19:49:57.400Z,25.59
2018-08-04T19:53:06.170Z,25.48
2018-08-04T19:56:13.324Z,25.38
2018-08-04T19:59:21.568Z,25.30
2018-08-04T20:02:30.073Z,25.20
2018-08-04T20:05:37.162Z,25.11
2018-08-04T20:08:43.934Z,25.08
2018-08-04T20:11:50.818Z,25.05
2018-08-04T20:14:57.658Z,24.98
2018-08-04T20:18:04.470Z,24.96
2018-08-04T20:21:11.940Z,25.00
2018-08-04T20:24:17.885Z,24.95
2018-08-04T20:27:24.705Z,24.93
2018-08-04T20:30:31.249Z,24.94
2018-08-04T20:33:38.483Z,24.88
2018-08-04T20:36:45.274Z,24.79
2018-08-04T20:39:52.314Z,24.68
2018-08-04T20:42:58.595Z,24.53
2018-08-04T20:46:05.171Z,24.38
2018-08-04T20:49:11.654Z,24.35
2018-08-04T20:52:18.534Z,24.41
2018-08-04T20:55:25.594Z,24.46
2018-08-04T20:58:32.415Z,24.39
2018-08-04T21:02:01.666Z,24.38
2018-08-04T21:05:08.558Z,24.35
2018-08-04T21:08:15.379Z,24.17
2018-08-04T21:11:22.293Z,24.08
2018-08-04T21:14:29.670Z,24.08
2018-08-04T21:17:36.540Z,24.04
2018-08-04T21:20:43.365Z,23.91
2018-08-04T21:23:50.100Z,23.82
2018-08-04T21:26:57.033Z,23.75
2018-08-04T21:30:03.844Z,23.74
2018-08-04T21:33:10.417Z,23.82
2018-08-04T21:36:16.880Z,23.80
2018-08-04T21:39:23.708Z,23.71
2018-08-04T21:42:30.579Z,23.62
2018-08-04T21:45:37.399Z,23.61
2018-08-04T21:48:44.195Z,23.59
2018-08-04T21:51:51.639Z,23.49
2018-08-04T21:54:58.465Z,23.32
2018-08-04T21:58:05.334Z,23.26
2018-08-04T22:01:15.113Z,23.27
2018-08-04T22:04:22.011Z,23.30
2018-08-04T22:07:48.134Z,23.22
2018-08-04T22:10:55.141Z,23.20
2018-08-04T22:14:02.033Z,23.15
2018-08-04T22:17:08.986Z,23.08
2018-08-04T22:20:18.318Z,23.10
2018-08-04T22:23:25.666Z,23.13
2018-08-04T22:26:32.553Z,23.13
2018-08-04T22:29:39.345Z,23.00
2018-08-04T22:32:46.354Z,22.92
2018-08-04T22:35:53.030Z,22.85
2018-08-04T22:38:59.283Z,22.71
2018-08-04T22:42:06.100Z,22.70
2018-08-04T22:45:44.562Z,22.79
2018-08-04T22:48:52.433Z,22.68
2018-08-04T22:51:59.006Z,22.47
2018-08-04T22:55:06.114Z,22.46
2018-08-04T22:58:12.949Z,22.46
2018-08-04T23:01:19.410Z,22.47
2018-08-04T23:04:26.343Z,22.45
2018-08-04T23:07:32.878Z,22.46
2018-08-04T23:10:39.772Z,22.48
2018-08-04T23:13:46.679Z,22.44
2018-08-04T23:16:53.248Z,22.43
2018-08-04T23:20:00.049Z,22.47
2018-08-04T23:23:07.558Z,22.54
2018-08-04T23:26:14.219Z,22.56
2018-08-04T23:29:21.058Z,22.54
2018-08-04T23:32:27.848Z,22.53
2018-08-04T23:35:34.650Z,22.46
2018-08-04T23:38:41.431Z,22.40
2018-08-04T23:41:48.240Z,22.40
2018-08-04T23:44:54.721Z,22.42
2018-08-04T23:48:01.504Z,22.42
2018-08-04T23:51:08.796Z,22.34
2018-08-04T23:54:15.610Z,22.23
2018-08-04T23:57:22.487Z,22.18
